Time;durP1;ratioP1;P1;durP2;ratioP2;P2;SDS_P1;SDS_P2;PMS_P1;PMS_P2;Temp;Humidity;BMP_temperature;BMP_pressure;BME280_temperature;BME280_humidity;BME280_pressure;Samples;Min_cycle;Max_cycle;Signal;HPM_P1;HPM_P2
2023/12/03 00:02:22;;;;;;;21.63;11.60;;;0.20;99.90;;;;;;5055737;28;20055;-77
2023/12/03 00:04:51;;;;;;;24.48;11.55;;;0.20;99.90;;;;;;5057524;28;20033;-78
2023/12/03 00:07:17;;;;;;;21.00;10.90;;;0.10;99.90;;;;;;5062081;28;20048;-78
2023/12/03 00:09:45;;;;;;;23.75;10.93;;;1.30;99.90;;;;;;5059190;28;20076;-76
2023/12/03 00:12:11;;;;;;;30.08;11.23;;;0.10;99.90;;;;;;5063263;28;20049;-77
2023/12/03 00:14:37;;;;;;;28.02;13.20;;;0.10;99.90;;;;;;5070549;28;20042;-77
2023/12/03 00:17:04;;;;;;;27.77;12.85;;;0.00;99.90;;;;;;5086649;28;20093;-77
2023/12/03 00:19:29;;;;;;;33.15;12.95;;;0.00;99.90;;;;;;5064749;28;20060;-76
2023/12/03 00:21:55;;;;;;;26.13;12.63;;;-0.10;99.90;;;;;;5046587;28;20037;-76
2023/12/03 00:24:21;;;;;;;32.80;12.00;;;-0.10;99.90;;;;;;5052668;28;20037;-76
2023/12/03 00:26:48;;;;;;;24.45;11.80;;;-0.10;99.90;;;;;;5035822;28;20048;-77
2023/12/03 00:29:14;;;;;;;29.50;14.23;;;-0.10;99.90;;;;;;5045102;28;20064;-77
2023/12/03 00:31:39;;;;;;;25.90;11.88;;;0.10;99.90;;;;;;5076216;28;20045;-77
2023/12/03 00:34:08;;;;;;;28.52;12.07;;;-0.10;99.90;;;;;;5070659;28;20045;-77
2023/12/03 00:36:34;;;;;;;27.58;11.70;;;-0.20;99.90;;;;;;5068197;28;20052;-77
2023/12/03 00:39:01;;;;;;;26.35;11.77;;;0.30;99.90;;;;;;5081111;28;20063;-76
2023/12/03 00:41:26;;;;;;;26.10;11.35;;;-0.20;99.90;;;;;;5052028;28;20090;-77
2023/12/03 00:43:53;;;;;;;21.98;11.05;;;-0.20;99.90;;;;;;5043087;28;20033;-77
2023/12/03 00:46:19;;;;;;;25.73;10.95;;;-0.30;99.90;;;;;;5050462;28;20391;-77
2023/12/03 00:48:46;;;;;;;25.08;11.07;;;-0.30;99.90;;;;;;5053168;28;20120;-77
2023/12/03 00:51:12;;;;;;;22.55;10.57;;;-0.30;99.90;;;;;;5050792;28;20090;-77
2023/12/03 00:53:38;;;;;;;24.30;11.07;;;-0.30;99.90;;;;;;5054239;28;20068;-78
2023/12/03 00:56:04;;;;;;;24.45;10.50;;;-0.30;99.90;;;;;;5049130;28;20029;-77
2023/12/03 00:58:34;;;;;;;19.70;10.10;;;-0.40;99.90;;;;;;5067191;28;20494;-76
2023/12/03 01:01:00;;;;;;;20.45;10.13;;;-0.40;99.90;;;;;;5056244;28;20410;-77
2023/12/03 01:03:26;;;;;;;25.00;10.55;;;-0.50;99.90;;;;;;5063855;28;20048;-77
2023/12/03 01:05:51;;;;;;;21.42;10.60;;;-0.50;99.90;;;;;;5072847;28;20429;-77
2023/12/03 01:08:17;;;;;;;20.33;9.85;;;-0.50;99.90;;;;;;5074899;28;20071;-77
2023/12/03 01:10:46;;;;;;;19.00;9.82;;;-0.50;99.90;;;;;;5057408;28;20067;-77
2023/12/03 01:13:12;;;;;;;20.23;10.00;;;-0.50;99.90;;;;;;5043105;28;20222;-77
2023/12/03 01:15:38;;;;;;;22.33;9.63;;;-0.50;99.90;;;;;;5095943;28;20447;-77
2023/12/03 01:18:04;;;;;;;17.30;9.40;;;-0.60;99.90;;;;;;5070923;28;20083;-76
2023/12/03 01:20:30;;;;;;;23.80;9.65;;;-0.60;99.90;;;;;;5091104;28;20103;-78
2023/12/03 01:22:55;;;;;;;19.58;9.55;;;-0.60;99.90;;;;;;5086174;28;20081;-77
2023/12/03 01:25:21;;;;;;;17.00;8.98;;;-0.60;99.90;;;;;;5053634;28;20040;-76
2023/12/03 01:27:47;;;;;;;17.10;8.10;;;0.10;99.90;;;;;;5055933;28;20045;-77
2023/12/03 01:30:13;;;;;;;22.52;8.98;;;-0.60;99.90;;;;;;5063408;28;20059;-77
2023/12/03 01:32:39;;;;;;;17.38;8.15;;;-0.60;99.90;;;;;;5040675;28;20056;-76
2023/12/03 01:35:05;;;;;;;15.43;8.02;;;-0.60;99.90;;;;;;5074834;28;20037;-77
2023/12/03 01:37:31;;;;;;;15.93;7.97;;;-0.60;99.90;;;;;;5076047;28;20044;-76
2023/12/03 01:39:57;;;;;;;18.67;8.23;;;-0.60;99.90;;;;;;5039843;28;20053;-77
2023/12/03 01:42:27;;;;;;;14.38;7.85;;;-0.60;99.90;;;;;;5056424;28;20480;-76
2023/12/03 01:44:53;;;;;;;15.68;8.05;;;-0.70;99.90;;;;;;5065743;28;20041;-76
2023/12/03 01:47:20;;;;;;;17.30;8.60;;;-0.70;99.90;;;;;;5058491;28;20372;-77
2023/12/03 01:49:47;;;;;;;17.05;7.95;;;-0.70;99.90;;;;;;5055970;28;20045;-77
2023/12/03 01:52:14;;;;;;;14.27;7.35;;;-0.30;99.90;;;;;;5070873;28;20126;-76
2023/12/03 01:54:43;;;;;;;14.93;8.40;;;-0.60;99.90;;;;;;5087399;28;20121;-76
2023/12/03 01:57:10;;;;;;;20.67;9.13;;;0.00;99.90;;;;;;5074345;28;20398;-76
2023/12/03 01:59:36;;;;;;;16.15;8.15;;;-0.70;99.90;;;;;;5069644;28;20103;-76
2023/12/03 02:02:03;;;;;;;15.73;8.60;;;-0.70;99.90;;;;;;5075534;28;20048;-77
2023/12/03 02:04:29;;;;;;;17.10;8.52;;;-0.70;99.90;;;;;;5067645;28;20052;-77
2023/12/03 02:06:55;;;;;;;15.57;8.60;;;-0.80;99.90;;;;;;5074241;28;20032;-77
2023/12/03 02:09:23;;;;;;;13.68;8.10;;;-0.70;99.90;;;;;;5058607;28;20402;-77
2023/12/03 02:11:49;;;;;;;13.98;7.53;;;-0.80;99.90;;;;;;5051983;28;20498;-76
2023/12/03 02:14:15;;;;;;;16.45;7.90;;;-0.70;99.90;;;;;;5069387;28;20079;-77
2023/12/03 02:16:45;;;;;;;13.73;7.97;;;-0.80;99.90;;;;;;5042186;28;20040;-77
2023/12/03 02:19:11;;;;;;;15.77;7.75;;;-0.80;99.90;;;;;;5030562;28;20045;-77
2023/12/03 02:21:37;;;;;;;12.75;7.82;;;-0.30;99.90;;;;;;5074074;28;20036;-76
2023/12/03 02:24:03;;;;;;;17.73;8.00;;;-0.80;99.90;;;;;;5074599;28;20211;-77
2023/12/03 02:26:29;;;;;;;14.73;7.13;;;-0.90;99.90;;;;;;5038467;28;20045;-76
2023/12/03 02:28:54;;;;;;;16.85;8.35;;;-0.90;99.90;;;;;;5073012;28;20028;-76
2023/12/03 02:31:20;;;;;;;14.70;7.40;;;-0.90;99.90;;;;;;5058807;28;20041;-77
2023/12/03 02:33:55;;;;;;;14.48;8.52;;;-1.60;99.90;;;;;;5073844;28;20045;-76
2023/12/03 02:36:20;;;;;;;13.02;7.00;;;0.20;99.90;;;;;;5070413;28;20066;-76
2023/12/03 02:38:46;;;;;;;17.00;8.55;;;-0.90;99.90;;;;;;5053568;28;20112;-76
2023/12/03 02:41:12;;;;;;;15.52;8.10;;;-0.60;99.90;;;;;;5072676;28;20123;-79
2023/12/03 02:43:37;;;;;;;18.92;9.52;;;-0.90;99.90;;;;;;5039910;28;20079;-77
2023/12/03 02:46:04;;;;;;;24.38;11.50;;;-1.00;99.90;;;;;;5054680;28;20137;-77
2023/12/03 02:48:29;;;;;;;27.10;12.00;;;-1.00;99.90;;;;;;5059057;28;20047;-76
2023/12/03 02:50:55;;;;;;;27.67;12.40;;;-1.00;99.90;;;;;;5056162;28;20048;-77
2023/12/03 02:53:21;;;;;;;28.55;14.00;;;-1.00;99.90;;;;;;5094132;28;20068;-77
2023/12/03 02:55:46;;;;;;;28.58;13.15;;;-1.10;99.90;;;;;;5096928;28;20044;-77
2023/12/03 02:58:12;;;;;;;26.88;14.45;;;0.00;99.90;;;;;;5082980;28;20056;-77
2023/12/03 03:00:38;;;;;;;37.80;16.15;;;-1.10;99.90;;;;;;5088044;28;20483;-77
2023/12/03 03:03:03;;;;;;;34.58;14.13;;;-1.10;99.90;;;;;;5073489;28;20040;-78
2023/12/03 03:05:29;;;;;;;33.45;13.80;;;-1.10;99.90;;;;;;5072516;28;20058;-76
2023/12/03 03:07:55;;;;;;;29.08;13.73;;;-1.20;99.90;;;;;;5074679;28;20138;-77
2023/12/03 03:10:21;;;;;;;35.90;14.40;;;-1.20;99.90;;;;;;5071109;28;20051;-77
2023/12/03 03:12:47;;;;;;;32.00;14.07;;;-1.20;99.90;;;;;;5089773;28;20037;-77
2023/12/03 03:15:13;;;;;;;22.92;11.40;;;-1.20;99.90;;;;;;5085903;28;20043;-77
2023/12/03 03:17:39;;;;;;;22.83;10.77;;;-1.20;99.90;;;;;;5047822;28;20045;-77
2023/12/03 03:20:05;;;;;;;23.00;10.88;;;-1.10;99.90;;;;;;5045037;28;20044;-78
2023/12/03 03:22:31;;;;;;;23.10;9.95;;;-1.10;99.90;;;;;;5054284;28;20056;-78
2023/12/03 03:24:59;;;;;;;21.55;10.30;;;-1.10;99.90;;;;;;5033264;28;20387;-78
2023/12/03 03:27:25;;;;;;;19.75;8.20;;;-1.10;99.90;;;;;;5059119;28;20044;-77
2023/12/03 03:29:50;;;;;;;16.52;8.32;;;-1.10;99.90;;;;;;5055577;28;20039;-78
2023/12/03 03:32:16;;;;;;;14.93;7.20;;;-1.20;99.90;;;;;;5067217;28;20087;-78
2023/12/03 03:34:42;;;;;;;12.68;7.43;;;-1.10;99.90;;;;;;5057589;28;20044;-78
2023/12/03 03:37:07;;;;;;;13.98;7.25;;;-1.20;99.90;;;;;;5056587;28;20119;-77
2023/12/03 03:39:33;;;;;;;13.02;7.63;;;-1.10;99.90;;;;;;5076926;28;20063;-77
2023/12/03 03:41:59;;;;;;;12.20;7.90;;;-1.10;99.90;;;;;;5055765;28;20105;-76
2023/12/03 03:44:24;;;;;;;13.82;8.02;;;-1.10;99.90;;;;;;5075436;28;20060;-78
2023/12/03 03:46:51;;;;;;;16.10;7.20;;;-0.10;99.90;;;;;;5057326;28;20071;-77
2023/12/03 03:49:16;;;;;;;15.48;8.50;;;-1.20;99.90;;;;;;5040646;28;20052;-77
2023/12/03 03:51:42;;;;;;;14.90;7.82;;;-0.90;99.90;;;;;;5061317;28;20075;-77
2023/12/03 03:54:07;;;;;;;16.98;7.95;;;-1.10;99.90;;;;;;5081011;28;20060;-77
2023/12/03 03:56:33;;;;;;;17.02;8.13;;;-1.10;99.90;;;;;;5075273;28;20088;-77
2023/12/03 03:58:59;;;;;;;19.80;8.65;;;-1.00;99.90;;;;;;5048707;28;20049;-77
2023/12/03 04:01:25;;;;;;;14.55;8.30;;;-1.20;99.90;;;;;;5087370;28;20075;-76
2023/12/03 04:03:51;;;;;;;15.80;8.50;;;-1.10;99.90;;;;;;5082651;28;20097;-78
2023/12/03 04:06:16;;;;;;;13.85;8.38;;;-1.20;99.90;;;;;;5074987;28;20044;-79
2023/12/03 04:08:42;;;;;;;16.27;8.88;;;-1.20;99.90;;;;;;5086637;28;20097;-77
2023/12/03 04:11:08;;;;;;;14.52;8.13;;;-1.20;99.90;;;;;;5088788;28;20090;-77
2023/12/03 04:13:35;;;;;;;18.27;9.07;;;-1.20;99.90;;;;;;5090029;28;20036;-77
2023/12/03 04:16:01;;;;;;;15.93;9.52;;;-1.20;99.90;;;;;;5070502;28;20509;-77
2023/12/03 04:18:27;;;;;;;14.80;9.43;;;-1.20;99.90;;;;;;5061628;28;20108;-76
2023/12/03 04:20:52;;;;;;;14.35;8.57;;;-0.50;99.90;;;;;;5067315;28;20120;-78
2023/12/03 04:23:18;;;;;;;16.80;9.57;;;-1.20;99.90;;;;;;5053175;28;20072;-77
2023/12/03 04:25:44;;;;;;;20.15;10.25;;;-1.20;99.90;;;;;;5035496;28;20037;-78
2023/12/03 04:28:09;;;;;;;15.88;9.77;;;-1.10;99.90;;;;;;5077211;28;20048;-75
2023/12/03 04:30:35;;;;;;;15.80;8.93;;;-1.20;99.90;;;;;;5045790;28;20086;-77
2023/12/03 04:33:01;;;;;;;15.70;9.25;;;-1.20;99.90;;;;;;5044332;28;20044;-76
2023/12/03 04:35:27;;;;;;;14.38;9.20;;;-1.20;99.90;;;;;;5057547;28;20087;-78
2023/12/03 04:37:52;;;;;;;17.30;9.73;;;-1.20;99.90;;;;;;5053202;28;20048;-78
2023/12/03 04:40:19;;;;;;;20.23;11.45;;;-1.20;99.90;;;;;;5075295;28;20039;-78
2023/12/03 04:42:48;;;;;;;17.90;10.85;;;-0.90;99.90;;;;;;5037800;28;20153;-77
2023/12/03 04:45:14;;;;;;;20.00;11.82;;;-1.30;99.90;;;;;;5074019;28;20071;-78
2023/12/03 04:47:39;;;;;;;20.60;11.70;;;-1.20;99.90;;;;;;5072500;28;20036;-75
2023/12/03 04:50:06;;;;;;;28.23;15.07;;;-1.20;99.90;;;;;;5058549;28;20043;-76
2023/12/03 04:52:31;;;;;;;26.48;14.00;;;-1.20;99.90;;;;;;5053251;28;20049;-76
2023/12/03 04:54:57;;;;;;;30.08;14.13;;;-1.10;99.90;;;;;;5065638;28;20478;-77
2023/12/03 04:57:23;;;;;;;24.70;13.93;;;-1.00;99.90;;;;;;5032002;28;20040;-77
2023/12/03 04:59:48;;;;;;;25.35;14.18;;;-1.00;99.90;;;;;;5078861;28;20048;-77
2023/12/03 05:02:14;;;;;;;29.75;15.80;;;-1.00;99.90;;;;;;5072532;28;20554;-76
2023/12/03 05:04:39;;;;;;;28.88;14.68;;;-0.90;99.90;;;;;;5059136;28;20041;-78
2023/12/03 05:07:05;;;;;;;40.75;16.83;;;-1.00;99.90;;;;;;5052698;28;20124;-78
2023/12/03 05:09:31;;;;;;;34.97;16.65;;;-0.90;99.90;;;;;;5047951;28;20502;-76
2023/12/03 05:11:56;;;;;;;70.53;18.98;;;-0.90;99.90;;;;;;5076191;28;20055;-77
2023/12/03 05:14:22;;;;;;;43.47;17.23;;;-0.80;99.90;;;;;;5053608;28;20036;-76
2023/12/03 05:16:48;;;;;;;87.47;21.67;;;-0.80;99.90;;;;;;5068903;28;20036;-76
2023/12/03 05:19:14;;;;;;;49.10;20.75;;;-0.80;99.90;;;;;;5085934;28;20466;-77
2023/12/03 05:21:39;;;;;;;98.18;23.30;;;-0.80;99.90;;;;;;5053652;28;20182;-77
2023/12/03 05:24:05;;;;;;;58.97;23.10;;;-0.80;99.90;;;;;;5040360;28;20040;-76
2023/12/03 05:26:31;;;;;;;65.13;24.98;;;-0.80;99.90;;;;;;5061159;28;20087;-77
2023/12/03 05:28:56;;;;;;;85.45;27.30;;;-0.70;99.90;;;;;;5073098;28;20048;-76
2023/12/03 05:31:22;;;;;;;75.47;26.30;;;-0.70;99.90;;;;;;5087867;28;20055;-76
2023/12/03 05:33:48;;;;;;;71.80;26.08;;;-0.70;99.90;;;;;;5072442;28;20040;-77
2023/12/03 05:36:23;;;;;;;69.30;27.33;;;-0.70;99.90;;;;;;5056891;28;20491;-78
2023/12/03 05:38:51;;;;;;;105.55;30.40;;;-0.60;99.90;;;;;;5052731;28;20036;-77
2023/12/03 05:41:17;;;;;;;;;;;-0.60;99.90;;;;;;5073139;28;20083;-77
2023/12/03 05:43:42;;;;;;;120.18;30.75;;;-0.60;99.90;;;;;;5072830;28;19959;-76
2023/12/03 05:46:08;;;;;;;159.07;34.97;;;-0.60;99.90;;;;;;5050148;28;20036;-76
2023/12/03 05:48:37;;;;;;;246.05;38.22;;;-0.60;99.90;;;;;;5055503;28;20041;-77
2023/12/03 05:51:09;;;;;;;173.35;36.35;;;-0.60;99.90;;;;;;5071328;28;20509;-75
2023/12/03 05:53:35;;;;;;;119.25;37.17;;;-0.60;99.90;;;;;;5059531;28;20048;-76
2023/12/03 05:56:00;;;;;;;230.85;44.00;;;-0.60;99.90;;;;;;5063665;28;20045;-76
2023/12/03 05:58:27;;;;;;;209.52;40.78;;;0.70;99.90;;;;;;5041672;28;20056;-76
2023/12/03 06:00:53;;;;;;;196.40;45.30;;;0.50;99.90;;;;;;5052292;28;20037;-76
2023/12/03 06:03:19;;;;;;;222.45;46.70;;;-0.40;99.90;;;;;;5076658;28;20059;-76
2023/12/03 06:05:44;;;;;;;160.88;42.35;;;-0.40;99.90;;;;;;5042361;28;20040;-78
2023/12/03 06:08:10;;;;;;;200.32;42.60;;;-0.40;99.90;;;;;;5090690;28;20071;-76
2023/12/03 06:10:35;;;;;;;128.75;38.90;;;-0.20;99.90;;;;;;5074285;28;20130;-77
2023/12/03 06:13:01;;;;;;;153.38;40.60;;;-0.30;99.90;;;;;;5064257;28;20033;-76
2023/12/03 06:15:26;;;;;;;145.13;40.03;;;-0.30;99.90;;;;;;5050000;28;20501;-76
2023/12/03 06:17:53;;;;;;;143.80;36.53;;;-0.20;99.90;;;;;;5047722;28;20029;-78
2023/12/03 06:20:18;;;;;;;170.23;39.13;;;-0.20;99.90;;;;;;5065707;28;20406;-77
2023/12/03 06:22:44;;;;;;;157.65;37.70;;;-0.20;99.90;;;;;;5066386;28;20047;-77
2023/12/03 06:25:10;;;;;;;204.35;36.80;;;-0.20;99.90;;;;;;5071719;28;20545;-78
2023/12/03 06:27:35;;;;;;;175.48;37.38;;;-0.10;99.90;;;;;;5056648;28;20045;-77
2023/12/03 06:30:03;;;;;;;165.27;34.83;;;-0.10;99.90;;;;;;5058777;28;20041;-77
2023/12/03 06:32:30;;;;;;;203.57;35.80;;;-0.10;99.90;;;;;;5059177;28;20047;-77
2023/12/03 06:34:56;;;;;;;166.88;32.92;;;0.00;99.90;;;;;;5026907;28;20078;-78
2023/12/03 06:37:22;;;;;;;115.70;32.85;;;0.00;99.90;;;;;;5058303;28;20512;-77
2023/12/03 06:39:48;;;;;;;135.85;33.78;;;0.00;99.90;;;;;;5087123;28;20087;-77
2023/12/03 06:42:13;;;;;;;161.15;32.33;;;0.00;99.90;;;;;;5074300;28;20047;-77
2023/12/03 06:44:39;;;;;;;116.22;30.50;;;0.00;99.90;;;;;;5068654;28;20060;-78
2023/12/03 06:47:05;;;;;;;179.07;34.58;;;0.10;99.90;;;;;;5057210;28;20052;-77
2023/12/03 06:49:32;;;;;;;147.88;30.27;;;0.10;99.90;;;;;;5070802;28;20075;-78
2023/12/03 06:52:01;;;;;;;127.72;30.35;;;0.10;99.90;;;;;;5070335;28;20036;-76
2023/12/03 06:54:27;;;;;;;105.10;30.33;;;0.10;99.90;;;;;;5036120;28;20127;-78
2023/12/03 06:56:53;;;;;;;202.30;33.47;;;0.10;99.90;;;;;;5055784;28;20513;-79
2023/12/03 06:59:19;;;;;;;126.97;31.02;;;0.10;99.90;;;;;;5058268;28;20153;-77
2023/12/03 07:01:44;;;;;;;115.28;30.67;;;0.10;99.90;;;;;;5060557;28;20076;-78
2023/12/03 07:04:10;;;;;;;197.52;35.03;;;0.20;99.90;;;;;;5054238;28;20032;-78
2023/12/03 07:06:36;;;;;;;164.10;29.73;;;0.50;99.90;;;;;;5076690;28;20040;-77
2023/12/03 07:09:01;;;;;;;128.65;29.45;;;0.20;99.90;;;;;;5072735;28;20041;-79
2023/12/03 07:11:29;;;;;;;123.70;28.42;;;0.20;99.90;;;;;;5058362;28;20135;-78
2023/12/03 07:13:55;;;;;;;136.18;29.85;;;0.20;99.90;;;;;;5066903;28;20099;-77
2023/12/03 07:16:22;;;;;;;134.85;30.50;;;0.70;99.90;;;;;;5058598;28;20041;-78
2023/12/03 07:18:48;;;;;;;136.88;28.17;;;0.30;99.90;;;;;;5062751;28;20074;-77
2023/12/03 07:21:18;;;;;;;138.43;27.50;;;0.20;99.90;;;;;;5074170;28;20501;-80
2023/12/03 07:23:47;;;;;;;118.30;29.02;;;0.30;99.90;;;;;;5047249;28;20045;-78
2023/12/03 07:26:12;;;;;;;101.05;24.25;;;0.30;99.90;;;;;;5044291;28;20063;-78
2023/12/03 07:28:38;;;;;;;95.88;23.30;;;0.40;99.90;;;;;;5071386;28;20044;-78
2023/12/03 07:31:04;;;;;;;141.95;25.77;;;0.40;99.90;;;;;;5069063;28;20037;-77
2023/12/03 07:33:31;;;;;;;89.03;23.50;;;0.40;99.90;;;;;;5050285;28;20049;-79
2023/12/03 07:35:57;;;;;;;150.63;27.13;;;0.40;99.90;;;;;;5069383;28;20052;-80
2023/12/03 07:38:23;;;;;;;120.65;26.17;;;0.40;99.90;;;;;;5083696;28;20048;-79
2023/12/03 07:40:54;;;;;;;140.73;26.65;;;0.40;99.90;;;;;;5069268;28;20063;-76
2023/12/03 07:43:20;;;;;;;149.93;26.25;;;0.40;99.90;;;;;;5082898;28;20501;-78
2023/12/03 07:45:46;;;;;;;111.05;26.58;;;0.40;99.90;;;;;;5054224;28;20115;-79
2023/12/03 07:48:11;;;;;;;125.95;25.75;;;0.50;99.90;;;;;;5059124;28;20446;-77
2023/12/03 07:50:37;;;;;;;121.63;26.25;;;0.50;99.90;;;;;;5073074;28;20059;-79
2023/12/03 07:53:03;;;;;;;127.70;28.20;;;0.80;99.90;;;;;;5073137;28;20448;-78
2023/12/03 07:55:29;;;;;;;102.13;24.92;;;0.50;99.90;;;;;;5058676;28;20052;-79
2023/12/03 07:57:54;;;;;;;95.57;24.70;;;0.60;99.90;;;;;;5058284;28;20052;-80
2023/12/03 08:00:21;;;;;;;98.05;25.63;;;0.60;99.90;;;;;;5054913;28;20048;-78
2023/12/03 08:02:47;;;;;;;117.10;26.98;;;0.60;99.90;;;;;;5042515;28;20055;-80
2023/12/03 08:05:15;;;;;;;125.35;26.67;;;0.60;99.90;;;;;;5058661;28;20044;-79
2023/12/03 08:07:41;;;;;;;109.22;26.73;;;0.60;99.90;;;;;;5079315;28;20055;-79
2023/12/03 08:10:10;;;;;;;84.75;22.63;;;0.60;99.90;;;;;;5071227;28;20053;-80
2023/12/03 08:12:36;;;;;;;114.75;26.33;;;0.70;99.90;;;;;;5043015;28;20509;-78
2023/12/03 08:15:01;;;;;;;94.93;23.80;;;0.70;99.90;;;;;;5077127;28;20036;-79
2023/12/03 08:17:27;;;;;;;95.85;25.08;;;1.90;99.90;;;;;;5030735;28;20363;-79
2023/12/03 08:19:52;;;;;;;93.55;23.45;;;1.70;99.90;;;;;;5049779;28;20054;-80
2023/12/03 08:22:18;;;;;;;93.72;24.02;;;0.70;99.90;;;;;;5069539;28;20055;-78
2023/12/03 08:24:44;;;;;;;102.03;24.48;;;0.70;99.90;;;;;;5088517;28;20119;-79
2023/12/03 08:27:09;;;;;;;94.85;22.85;;;0.80;99.90;;;;;;5095478;28;20048;-78
2023/12/03 08:29:35;;;;;;;89.32;22.67;;;0.80;99.90;;;;;;5039449;28;20047;-79
2023/12/03 08:32:01;;;;;;;84.03;21.38;;;0.80;99.90;;;;;;5067349;28;20040;-78
2023/12/03 08:34:28;;;;;;;81.90;21.10;;;1.60;99.90;;;;;;5072483;28;20063;-81
2023/12/03 08:36:55;;;;;;;71.73;19.87;;;0.80;99.90;;;;;;5034506;28;20049;-80
2023/12/03 08:39:20;;;;;;;76.75;19.60;;;0.80;99.90;;;;;;5051612;28;20044;-79
2023/12/03 08:41:46;;;;;;;67.35;18.63;;;0.80;99.90;;;;;;5040851;28;20050;-79
2023/12/03 08:44:12;;;;;;;74.88;18.38;;;0.80;99.90;;;;;;5083607;28;20072;-80
2023/12/03 08:46:38;;;;;;;78.63;19.98;;;0.80;99.90;;;;;;5055991;28;20040;-78
2023/12/03 08:49:04;;;;;;;62.22;19.30;;;0.80;99.90;;;;;;5065433;28;20040;-79
2023/12/03 08:51:29;;;;;;;75.88;19.42;;;0.80;99.90;;;;;;5043947;28;20113;-78
2023/12/03 08:53:55;;;;;;;75.70;21.02;;;0.90;99.90;;;;;;5062434;28;20068;-79
2023/12/03 08:56:21;;;;;;;73.72;20.17;;;0.80;99.90;;;;;;5059531;28;20040;-79
2023/12/03 08:58:47;;;;;;;77.47;20.33;;;0.90;99.90;;;;;;5092467;28;20049;-79
2023/12/03 09:01:12;;;;;;;69.13;21.00;;;0.90;99.90;;;;;;5050582;28;20053;-80
2023/12/03 09:03:40;;;;;;;76.68;21.02;;;0.90;99.90;;;;;;5054583;28;20422;-79
2023/12/03 09:06:07;;;;;;;80.10;22.35;;;0.90;99.90;;;;;;5043389;28;20045;-79
2023/12/03 09:08:32;;;;;;;76.93;21.50;;;1.00;99.90;;;;;;5053989;28;20046;-78
2023/12/03 09:10:59;;;;;;;75.93;21.08;;;1.00;99.90;;;;;;5085737;28;20053;-79
2023/12/03 09:13:24;;;;;;;76.43;21.83;;;1.00;99.90;;;;;;5059593;28;20047;-79
2023/12/03 09:15:51;;;;;;;74.20;22.02;;;1.00;99.90;;;;;;5041579;28;20046;-79
2023/12/03 09:18:17;;;;;;;79.80;23.17;;;1.10;99.90;;;;;;5076286;28;20055;-79
2023/12/03 09:20:43;;;;;;;87.18;24.80;;;1.30;99.90;;;;;;5047025;28;20076;-80
2023/12/03 09:23:08;;;;;;;78.25;22.65;;;1.10;99.90;;;;;;5044263;28;20101;-80
2023/12/03 09:25:34;;;;;;;75.80;24.48;;;1.20;99.90;;;;;;5053123;28;20132;-79
2023/12/03 09:28:00;;;;;;;68.13;21.98;;;1.20;99.90;;;;;;5051760;28;20514;-79
2023/12/03 09:30:25;;;;;;;76.60;24.23;;;1.30;99.90;;;;;;5044635;28;20034;-78
2023/12/03 09:32:51;;;;;;;80.93;25.65;;;1.40;99.90;;;;;;5061466;28;20104;-79
2023/12/03 09:35:17;;;;;;;80.57;24.42;;;1.40;99.90;;;;;;5065178;28;20041;-81
2023/12/03 09:37:42;;;;;;;77.18;24.55;;;1.50;99.90;;;;;;5039680;28;20491;-79
2023/12/03 09:40:09;;;;;;;72.60;25.80;;;1.50;99.90;;;;;;5052907;28;20109;-78
2023/12/03 09:42:36;;;;;;;80.60;26.17;;;1.60;99.90;;;;;;5041201;28;20085;-79
2023/12/03 09:45:04;;;;;;;68.97;25.77;;;1.70;99.90;;;;;;5054746;28;20068;-78
2023/12/03 09:47:37;;;;;;;66.03;24.77;;;1.60;99.90;;;;;;5054055;28;20037;-78
2023/12/03 09:50:04;;;;;;;56.75;23.55;;;1.60;99.90;;;;;;5031771;28;20041;-80
2023/12/03 09:52:34;;;;;;;64.95;24.42;;;1.60;99.90;;;;;;5056678;28;20044;-79
2023/12/03 09:55:00;;;;;;;56.60;25.42;;;1.60;99.90;;;;;;5056467;28;20171;-77
2023/12/03 09:57:29;;;;;;;67.28;26.00;;;1.70;99.90;;;;;;5050904;28;20037;-79
2023/12/03 10:00:04;;;;;;;65.75;26.27;;;1.70;99.90;;;;;;5077602;28;20518;-78
2023/12/03 10:02:31;;;;;;;65.53;25.83;;;1.80;99.90;;;;;;5052902;28;20078;-79
2023/12/03 10:04:57;;;;;;;61.83;24.55;;;1.80;99.90;;;;;;5046622;28;20055;-79
2023/12/03 10:07:27;;;;;;;59.67;26.10;;;1.80;99.90;;;;;;5075820;28;20044;-78
2023/12/03 10:09:57;;;;;;;53.13;24.45;;;1.80;99.90;;;;;;5043478;28;20047;-79
2023/12/03 10:12:37;;;;;;;56.75;24.83;;;1.80;99.90;;;;;;5060528;28;20100;-79
2023/12/03 10:15:03;;;;;;;57.67;26.40;;;1.80;99.90;;;;;;5056650;28;20108;-78
2023/12/03 10:17:29;;;;;;;55.42;25.00;;;1.80;99.90;;;;;;5077860;28;20045;-78
2023/12/03 10:19:54;;;;;;;56.38;24.08;;;1.90;99.90;;;;;;5075434;28;20041;-78
2023/12/03 10:22:34;;;;;;;62.85;27.00;;;1.90;99.90;;;;;;5061322;28;20047;-78
2023/12/03 10:25:00;;;;;;;60.28;27.52;;;2.90;99.90;;;;;;5080071;28;20040;-78
2023/12/03 10:27:29;;;;;;;54.22;26.02;;;2.00;99.90;;;;;;5077044;28;20033;-79
2023/12/03 10:29:55;;;;;;;50.97;26.55;;;2.00;99.90;;;;;;5058962;28;20059;-78
2023/12/03 10:32:22;;;;;;;55.83;26.52;;;2.10;99.90;;;;;;5054389;28;20040;-79
2023/12/03 10:34:50;;;;;;;52.30;26.08;;;2.10;99.90;;;;;;5074629;28;20134;-78
2023/12/03 10:37:16;;;;;;;53.42;25.58;;;2.10;99.90;;;;;;5057592;28;20049;-78
2023/12/03 10:39:41;;;;;;;49.22;25.02;;;2.10;99.90;;;;;;5055063;28;20037;-78
2023/12/03 10:42:08;;;;;;;52.03;26.75;;;2.10;99.90;;;;;;5054174;28;20041;-78
2023/12/03 10:44:38;;;;;;;50.85;26.02;;;2.20;99.90;;;;;;5073929;28;20136;-78
2023/12/03 10:47:07;;;;;;;56.65;28.13;;;2.20;99.90;;;;;;5072301;28;20041;-79
2023/12/03 10:49:33;;;;;;;49.30;26.90;;;2.20;99.90;;;;;;5073302;28;20051;-78
2023/12/03 10:52:03;;;;;;;53.97;26.08;;;2.10;99.90;;;;;;5074305;28;20052;-79
2023/12/03 10:54:28;;;;;;;49.90;26.50;;;2.10;99.90;;;;;;5057901;28;20040;-78
2023/12/03 10:56:55;;;;;;;49.15;25.70;;;2.10;99.90;;;;;;5042339;28;20045;-78
2023/12/03 10:59:29;;;;;;;47.85;26.77;;;2.00;99.90;;;;;;5074692;28;20064;-78
2023/12/03 11:01:59;;;;;;;52.75;26.15;;;2.00;99.90;;;;;;5056450;28;20502;-77
2023/12/03 11:04:47;;;;;;;47.47;26.05;;;2.10;99.90;;;;;;5075523;28;20045;-79
2023/12/03 11:07:15;;;;;;;47.05;25.85;;;2.00;99.90;;;;;;5054333;28;20525;-79
2023/12/03 11:09:42;;;;;;;48.97;25.98;;;2.00;99.90;;;;;;5039778;28;20055;-77
2023/12/03 11:12:11;;;;;;;52.08;26.80;;;2.00;99.90;;;;;;5070109;28;20071;-78
2023/12/03 11:14:38;;;;;;;44.78;25.40;;;2.00;99.90;;;;;;5089279;28;20040;-77
2023/12/03 11:17:17;;;;;;;48.65;26.48;;;2.00;99.90;;;;;;5066846;28;20040;-78
2023/12/03 11:19:49;;;;;;;53.83;28.23;;;2.00;99.90;;;;;;5062788;28;20041;-77
2023/12/03 11:22:40;;;;;;;48.92;26.65;;;2.10;99.90;;;;;;5067698;28;20037;-78
2023/12/03 11:25:12;;;;;;;45.88;24.38;;;2.00;99.90;;;;;;5073700;28;20048;-77
2023/12/03 11:27:42;;;;;;;47.95;26.15;;;2.70;99.90;;;;;;5066351;28;20045;-78
2023/12/03 11:30:10;;;;;;;44.47;24.17;;;2.00;99.90;;;;;;5051133;28;20040;-78
2023/12/03 11:32:36;;;;;;;41.85;24.25;;;2.10;99.90;;;;;;5076727;28;20063;-77
2023/12/03 11:35:05;;;;;;;44.22;24.65;;;2.10;99.90;;;;;;5078341;28;20040;-78
2023/12/03 11:37:31;;;;;;;46.00;25.38;;;2.10;99.90;;;;;;5060740;28;20040;-78
2023/12/03 11:40:12;;;;;;;44.30;24.83;;;2.10;99.90;;;;;;5087121;28;20081;-77
2023/12/03 11:42:48;;;;;;;46.10;26.15;;;2.10;99.90;;;;;;5043802;28;20487;-78
2023/12/03 11:45:29;;;;;;;47.53;26.58;;;2.10;99.90;;;;;;5062562;28;20052;-78
2023/12/03 11:48:09;;;;;;;46.03;25.92;;;2.10;99.90;;;;;;5069318;28;20049;-78
2023/12/03 11:50:42;;;;;;;45.72;25.80;;;2.10;99.90;;;;;;5034311;28;20094;-78
2023/12/03 11:53:15;;;;;;;46.90;26.27;;;2.20;99.90;;;;;;5069773;28;20104;-78
2023/12/03 11:55:44;;;;;;;42.15;25.52;;;2.20;99.90;;;;;;5049200;28;20040;-79
2023/12/03 11:58:10;;;;;;;41.13;25.20;;;3.10;99.90;;;;;;5049100;28;20047;-77
2023/12/03 12:00:38;;;;;;;44.88;26.80;;;3.30;99.90;;;;;;5076904;28;20194;-78
2023/12/03 12:03:06;;;;;;;46.08;25.63;;;2.40;99.90;;;;;;5073187;28;20052;-78
2023/12/03 12:05:32;;;;;;;42.00;24.73;;;2.40;99.90;;;;;;5058962;28;20044;-77
2023/12/03 12:08:03;;;;;;;40.17;24.80;;;3.30;99.90;;;;;;5063798;28;20082;-77
2023/12/03 12:10:33;;;;;;;39.45;24.88;;;2.30;99.90;;;;;;5093499;28;20044;-77
2023/12/03 12:13:02;;;;;;;41.42;23.42;;;2.30;99.90;;;;;;5056855;28;20051;-77
2023/12/03 12:15:28;;;;;;;39.95;23.73;;;2.30;99.90;;;;;;5074890;28;20125;-78
2023/12/03 12:17:54;;;;;;;38.97;23.75;;;2.20;99.90;;;;;;5074602;28;20095;-78
2023/12/03 12:20:27;;;;;;;41.88;24.77;;;2.20;99.90;;;;;;5075903;28;20052;-77
2023/12/03 12:22:54;;;;;;;39.45;23.08;;;2.30;99.90;;;;;;5051884;28;20071;-78
2023/12/03 12:25:21;;;;;;;41.38;23.75;;;2.30;99.90;;;;;;5053519;28;20105;-77
2023/12/03 12:27:56;;;;;;;41.22;24.27;;;2.30;99.90;;;;;;5052505;28;20083;-79
2023/12/03 12:30:28;;;;;;;40.03;25.00;;;2.20;99.90;;;;;;5040492;28;20141;-78
2023/12/03 12:32:54;;;;;;;40.47;23.55;;;2.30;99.90;;;;;;5061010;28;20124;-78